Etusivu
METAR-TAF:

METAR-TAF

Lentoasemat :

Ängelholm-Helsingborgin lentoasema

Helsingborg, Ruotsi

Leveyspiiri: 56-17-46N, Pituuspiiri: 012-50-50E, korkeus merenpinnasta: 21 m

Tämänhetkinen sää

Tämä raportti tehtiin 19 minuuttia sitten, kello 12.20 UTC
Tuuli 16 kn lännestä
Lämpötila 13°C
Kosteus 67%
Ilmanpaine 1006 hPa
Näkyvyys 10 km tai enemmän
Hajanaisia pilviä 2900 ft:n korkeudessa

METAR: ESTA 231220Z 26016KT 9999 SCT029 13/07 Q1006

Aika: 14:39 (12:39 UTC)

Sääennuste

Tämä raportti tehtiin 1 tunti ja 37 minuuttia sitten, kello 11.02 UTC
Ennuste voimassa 23. päivästä klo 12 UTC - 23. päivään klo 21 UTC
Tuuli 18 kn lännestä
Näkyvyys 10 km tai enemmän
Hajanaisia pilviä 3000 ft:n korkeudessa
Ajoittain
23. päivästä klo 12 UTC - 23. päivään klo 17 UTC
Hajanaisia pilviä 2000 ft:n korkeudessa, Cumulonimbus.

TAF: ESTA 231102Z 2312/2321 28018KT 9999 SCT030 TEMPO 2312/2317 SCT020CB

Säähavainnot ja -ennusteet yli 4000 lentoasemalta (METAR- ja TAF-raportit).

Käytössä olevat sääasemat on merkitty karttaan keltaisilla ja punaisilla pisteillä.

Aseta hiiri pisteen päälle nähdäksesi sääaseman nimen.

Klikkaa sitten nähdäksesi säähavainnot ja -ennusteet.

Kartan vaihtaminen: klikkaa mustalla rastilla varustettuja vihreitä pisteitä, niin voit zoomata sisään; viivalla varustettua vihreää pistettä, niin voit zoomata ulos tai vihreitä nuolia, niin pääset viereisille kartoille.


METAR-TAF: